Open Full Screen Window  High Contrast Mode
Wind Gusting 24 knots
15
February 25, 2018 5:04 AM EST
Weather Information
Wind Direction
  210 °
Wind Speed
  15 kt (17 mph)
Wind Gust
  24 kt (28 mph)
Altimeter
29.66 in
Visibility
10 SM
Temperature
14° C
57° F
Dewpoint
12° C
54° F
Humidity
88%
1hr Rain Fall
00.00 in.
24hr Rain Fall
01.43 in.
Sky Condition
Overcast @ 3,000 ft
Broken @ 2,300 ft
MVFR

METAR KDLZ 251004Z AUTO 21015G24KT 10SM BKN023 OVC030 14/12 A2966 RMK AO2

*Background is not an actual portrayal of the airport.